Time,TemperatureF,DewpointF,PressureIn,WindDirection,WindDirectionDegrees,WindSpeedMPH,WindSpeedGustMPH,Humidity,HourlyPrecipIn,Conditions,Clouds,dailyrainin,SolarRadiationWatts/m^2,SoftwareType,DateUTC
2013-01-02 00:12:00,12.5,7.0,30.64,SW,222,0.0,-999.0,79,-99.99,,,0.00,0,weatherlink.com 1.10,2013-01-02 07:12:00,
2013-01-02 00:27:00,12.3,7.0,30.64,SW,222,0.0,-999.0,80,-99.99,,,0.00,0,weatherlink.com 1.10,2013-01-02 07:27:00,
2013-01-02 00:42:00,10.6,5.0,30.63,SW,222,0.0,-999.0,78,-99.99,,,0.00,0,weatherlink.com 1.10,2013-01-02 07:42:00,
2013-01-02 00:57:00,6.9,2.0,30.63,North,5,3.0,-999.0,80,-99.99,,,0.00,0,weatherlink.com 1.10,2013-01-02 07:57:00,
2013-01-02 01:12:00,7.7,4.0,30.63,North,5,2.0,-999.0,83,-99.99,,,0.00,0,weatherlink.com 1.10,2013-01-02 08:12:00,
2013-01-02 01:27:00,8.1,4.0,30.63,North,5,3.0,-999.0,82,-99.99,,,0.00,0,weatherlink.com 1.10,2013-01-02 08:27:00,
2013-01-02 01:42:00,6.9,3.0,30.63,North,5,2.0,-999.0,82,-99.99,,,0.00,0,weatherlink.com 1.10,2013-01-02 08:42:00,
2013-01-02 01:57:00,6.3,2.0,30.63,North,5,2.0,-999.0,82,-99.99,,,0.00,0,weatherlink.com 1.10,2013-01-02 08:57:00,
2013-01-02 02:13:00,5.6,1.0,30.63,NNE,14,3.0,-999.0,82,-99.99,,,0.00,0,weatherlink.com 1.10,2013-01-02 09:13:00,
2013-01-02 02:28:00,5.4,1.0,30.64,NNE,14,3.0,-999.0,82,-99.99,,,0.00,0,weatherlink.com 1.10,2013-01-02 09:28:00,
2013-01-02 02:43:00,5.8,2.0,30.64,NNE,13,2.0,-999.0,83,-99.99,,,0.00,0,weatherlink.com 1.10,2013-01-02 09:43:00,
2013-01-02 02:58:00,6.0,2.0,30.63,NNE,21,3.0,-999.0,82,-99.99,,,0.00,0,weatherlink.com 1.10,2013-01-02 09:58:00,
2013-01-02 03:13:00,6.3,2.0,30.63,NNE,21,3.0,-999.0,83,-99.99,,,0.00,0,weatherlink.com 1.10,2013-01-02 10:13:00,
2013-01-02 03:28:00,8.1,4.0,30.62,NNE,21,2.0,-999.0,83,-99.99,,,0.00,0,weatherlink.com 1.10,2013-01-02 10:28:00,
2013-01-02 03:43:00,9.1,4.0,30.62,NNE,21,3.0,-999.0,81,-99.99,,,0.00,0,weatherlink.com 1.10,2013-01-02 10:43:00,
2013-01-02 03:58:00,9.2,5.0,30.61,NNE,21,0.0,-999.0,81,-99.99,,,0.00,0,weatherlink.com 1.10,2013-01-02 10:58:00,
2013-01-02 04:13:00,8.6,3.0,30.62,North,5,4.0,-999.0,78,-99.99,,,0.00,0,weatherlink.com 1.10,2013-01-02 11:13:00,
2013-01-02 04:28:00,5.7,1.0,30.62,NNE,16,3.0,-999.0,79,-99.99,,,0.00,0,weatherlink.com 1.10,2013-01-02 11:28:00,
2013-01-02 04:43:00,5.8,1.0,30.62,NNE,15,3.0,-999.0,81,-99.99,,,0.00,0,weatherlink.com 1.10,2013-01-02 11:43:00,
2013-01-02 04:58:00,7.0,2.0,30.63,NNW,348,3.0,-999.0,79,-99.99,,,0.00,0,weatherlink.com 1.10,2013-01-02 11:58:00,
2013-01-02 05:13:00,6.7,1.0,30.64,North,360,4.0,-999.0,77,-99.99,,,0.00,0,weatherlink.com 1.10,2013-01-02 12:13:00,
2013-01-02 05:29:00,5.4,0.0,30.64,NNE,19,3.0,-999.0,77,-99.99,,,0.00,0,weatherlink.com 1.10,2013-01-02 12:29:00,
2013-01-02 05:44:00,6.0,1.0,30.64,North,360,4.0,-999.0,78,-99.99,,,0.00,0,weatherlink.com 1.10,2013-01-02 12:44:00,
2013-01-02 05:59:00,6.2,0.0,30.64,NNW,346,3.0,-999.0,77,-99.99,,,0.00,0,weatherlink.com 1.10,2013-01-02 12:59:00,
2013-01-02 06:14:00,6.8,1.0,30.65,NNW,332,2.0,-999.0,76,-99.99,,,0.00,0,weatherlink.com 1.10,2013-01-02 13:14:00,
2013-01-02 06:29:00,6.5,0.0,30.65,NNW,345,1.0,-999.0,75,-99.99,,,0.00,0,weatherlink.com 1.10,2013-01-02 13:29:00,
2013-01-02 06:44:00,6.8,1.0,30.64,NNW,344,0.0,-999.0,76,-99.99,,,0.00,0,weatherlink.com 1.10,2013-01-02 13:44:00,
2013-01-02 06:59:00,6.8,1.0,30.64,NNW,344,0.0,-999.0,76,-99.99,,,0.00,0,weatherlink.com 1.10,2013-01-02 13:59:00,
2013-01-02 07:14:00,7.0,1.0,30.63,NW,320,2.0,-999.0,75,-99.99,,,0.00,0,weatherlink.com 1.10,2013-01-02 14:14:00,
2013-01-02 07:29:00,4.7,-2.0,30.63,West,267,2.0,-999.0,73,-99.99,,,0.00,0,weatherlink.com 1.10,2013-01-02 14:29:00,
2013-01-02 07:44:00,2.9,-3.0,30.62,West,266,4.0,-999.0,77,-99.99,,,0.00,5,weatherlink.com 1.10,2013-01-02 14:44:00,
2013-01-02 07:59:00,2.4,-3.0,30.62,West,267,0.0,-999.0,77,-99.99,,,0.00,14,weatherlink.com 1.10,2013-01-02 14:59:00,
2013-01-02 08:14:00,3.3,-2.0,30.62,WNW,287,2.0,-999.0,79,-99.99,,,0.00,40,weatherlink.com 1.10,2013-01-02 15:14:00,
2013-01-02 08:29:00,5.1,0.0,30.63,WNW,285,0.0,-999.0,78,-99.99,,,0.00,77,weatherlink.com 1.10,2013-01-02 15:29:00,
2013-01-02 08:44:00,8.0,2.0,30.63,WNW,285,0.0,-999.0,75,-99.99,,,0.00,116,weatherlink.com 1.10,2013-01-02 15:44:00,
2013-01-02 09:00:00,10.0,3.0,30.63,WNW,285,0.0,-999.0,72,-99.99,,,0.00,155,weatherlink.com 1.10,2013-01-02 16:00:00,
2013-01-02 09:15:00,11.0,4.0,30.64,WNW,285,0.0,-999.0,72,-99.99,,,0.00,197,weatherlink.com 1.10,2013-01-02 16:15:00,
2013-01-02 09:30:00,12.8,4.0,30.64,WNW,285,0.0,-999.0,68,-99.99,,,0.00,243,weatherlink.com 1.10,2013-01-02 16:30:00,
2013-01-02 09:45:00,13.8,4.0,30.65,North,5,2.0,-999.0,66,-99.99,,,0.00,279,weatherlink.com 1.10,2013-01-02 16:45:00,
2013-01-02 10:00:00,12.2,3.0,30.66,NE,34,5.0,-999.0,67,-99.99,,,0.00,311,weatherlink.com 1.10,2013-01-02 17:00:00,
2013-01-02 10:15:00,15.0,6.0,30.66,North,350,0.0,-999.0,67,-99.99,,,0.00,341,weatherlink.com 1.10,2013-01-02 17:15:00,
2013-01-02 10:30:00,14.3,3.0,30.65,NW,314,0.0,-999.0,61,-99.99,,,0.00,371,weatherlink.com 1.10,2013-01-02 17:30:00,
2013-01-02 10:45:00,14.6,4.0,30.65,NW,314,0.0,-999.0,63,-99.99,,,0.00,380,weatherlink.com 1.10,2013-01-02 17:45:00,
2013-01-02 11:00:00,13.4,4.0,30.65,NW,314,0.0,-999.0,65,-99.99,,,0.00,417,weatherlink.com 1.10,2013-01-02 18:00:00,
2013-01-02 11:15:00,15.1,5.0,30.64,West,267,0.0,-999.0,65,-99.99,,,0.00,432,weatherlink.com 1.10,2013-01-02 18:15:00,
2013-01-02 11:30:00,20.2,8.0,30.64,West,281,1.0,-999.0,60,-99.99,,,0.00,446,weatherlink.com 1.10,2013-01-02 18:30:00,
2013-01-02 11:45:00,20.1,8.0,30.62,West,263,2.0,-999.0,60,-99.99,,,0.00,459,weatherlink.com 1.10,2013-01-02 18:45:00,
2013-01-02 12:00:00,23.3,9.0,30.61,West,271,3.0,-999.0,55,-99.99,,,0.00,468,weatherlink.com 1.10,2013-01-02 19:00:00,
2013-01-02 12:16:00,25.9,10.0,30.61,West,271,0.0,-999.0,52,-99.99,,,0.00,471,weatherlink.com 1.10,2013-01-02 19:16:00,
2013-01-02 12:31:00,28.9,12.0,30.60,West,271,0.0,-999.0,49,-99.99,,,0.00,471,weatherlink.com 1.10,2013-01-02 19:31:00,
2013-01-02 12:46:00,29.7,12.0,30.59,West,271,3.0,-999.0,48,-99.99,,,0.00,469,weatherlink.com 1.10,2013-01-02 19:46:00,
2013-01-02 13:01:00,30.6,13.0,30.59,West,271,0.0,-999.0,48,-99.99,,,0.00,462,weatherlink.com 1.10,2013-01-02 20:01:00,
2013-01-02 13:16:00,29.6,12.0,30.57,NNW,344,3.0,-999.0,48,-99.99,,,0.00,448,weatherlink.com 1.10,2013-01-02 20:16:00,
2013-01-02 13:31:00,27.9,12.0,30.57,NNW,346,1.0,-999.0,51,-99.99,,,0.00,181,weatherlink.com 1.10,2013-01-02 20:31:00,
2013-01-02 13:46:00,27.0,12.0,30.57,NNW,346,3.0,-999.0,53,-99.99,,,0.01,294,weatherlink.com 1.10,2013-01-02 20:46:00,
2013-01-02 14:01:00,27.6,13.0,30.57,NNW,346,0.0,-999.0,55,-99.99,,,0.01,323,weatherlink.com 1.10,2013-01-02 21:01:00,
2013-01-02 14:16:00,28.7,13.0,30.57,NNW,346,0.0,-999.0,53,-99.99,,,0.01,237,weatherlink.com 1.10,2013-01-02 21:16:00,
2013-01-02 14:31:00,28.9,13.0,30.57,NNW,346,0.0,-999.0,51,-99.99,,,0.01,306,weatherlink.com 1.10,2013-01-02 21:31:00,
2013-01-02 14:46:00,28.5,12.0,30.57,NNW,346,0.0,-999.0,51,-99.99,,,0.01,311,weatherlink.com 1.10,2013-01-02 21:46:00,
2013-01-02 15:01:00,29.3,11.0,30.57,NNW,346,0.0,-999.0,47,-99.99,,,0.01,274,weatherlink.com 1.10,2013-01-02 22:01:00,
2013-01-02 15:16:00,29.4,12.0,30.56,NNW,346,0.0,-999.0,48,-99.99,,,0.01,230,weatherlink.com 1.10,2013-01-02 22:16:00,
2013-01-02 15:31:00,24.7,11.0,30.57,NNW,346,2.0,-999.0,57,-99.99,,,0.02,190,weatherlink.com 1.10,2013-01-02 22:31:00,
2013-01-02 16:02:00,21.8,11.0,30.58,NNW,346,0.0,-999.0,64,-99.99,,,0.02,51,weatherlink.com 1.10,2013-01-02 23:02:00,
2013-01-02 16:17:00,21.2,11.0,30.58,NNW,346,2.0,-999.0,64,-99.99,,,0.02,40,weatherlink.com 1.10,2013-01-02 23:17:00,
2013-01-02 16:32:00,20.9,10.0,30.58,North,11,0.0,-999.0,64,-99.99,,,0.02,25,weatherlink.com 1.10,2013-01-02 23:32:00,
2013-01-02 16:47:00,21.0,11.0,30.58,North,11,0.0,-999.0,64,-99.99,,,0.02,5,weatherlink.com 1.10,2013-01-02 23:47:00,
2013-01-02 17:02:00,21.1,10.0,30.58,North,11,0.0,-999.0,63,-99.99,,,0.02,0,weatherlink.com 1.10,2013-01-03 00:02:00,
2013-01-02 17:17:00,21.6,10.0,30.59,North,11,0.0,-999.0,62,-99.99,,,0.02,0,weatherlink.com 1.10,2013-01-03 00:17:00,
2013-01-02 17:47:00,19.0,9.0,30.60,NW,320,0.0,-999.0,64,-99.99,,,0.02,0,weatherlink.com 1.10,2013-01-03 00:47:00,
2013-01-02 18:02:00,19.1,10.0,30.59,NW,320,0.0,-999.0,67,-99.99,,,0.02,0,weatherlink.com 1.10,2013-01-03 01:02:00,
2013-01-02 18:17:00,19.4,10.0,30.60,NW,320,0.0,-999.0,66,-99.99,,,0.02,0,weatherlink.com 1.10,2013-01-03 01:17:00,
2013-01-02 18:32:00,18.7,9.0,30.60,NW,320,0.0,-999.0,67,-99.99,,,0.02,0,weatherlink.com 1.10,2013-01-03 01:32:00,
2013-01-02 18:47:00,19.0,10.0,30.60,NW,320,0.0,-999.0,68,-99.99,,,0.02,0,weatherlink.com 1.10,2013-01-03 01:47:00,
2013-01-02 19:02:00,18.3,10.0,30.60,NW,320,0.0,-999.0,69,-99.99,,,0.02,0,weatherlink.com 1.10,2013-01-03 02:02:00,
2013-01-02 19:18:00,18.8,9.0,30.60,NW,320,2.0,-999.0,67,-99.99,,,0.02,0,weatherlink.com 1.10,2013-01-03 02:18:00,
2013-01-02 19:33:00,19.9,9.0,30.61,NW,320,3.0,-999.0,63,-99.99,,,0.02,0,weatherlink.com 1.10,2013-01-03 02:33:00,
2013-01-02 19:48:00,17.4,8.0,30.61,SSE,151,1.0,-999.0,68,-99.99,,,0.02,0,weatherlink.com 1.10,2013-01-03 02:48:00,
2013-01-02 20:03:00,14.7,7.0,30.62,South,182,3.0,-999.0,71,-99.99,,,0.02,0,weatherlink.com 1.10,2013-01-03 03:03:00,
2013-01-02 20:18:00,14.6,8.0,30.62,WSW,244,2.0,-999.0,75,-99.99,,,0.02,0,weatherlink.com 1.10,2013-01-03 03:18:00,
2013-01-02 20:48:00,13.9,7.0,30.63,South,169,0.0,-999.0,75,-99.99,,,0.02,0,weatherlink.com 1.10,2013-01-03 03:48:00,
2013-01-02 21:18:00,12.8,5.0,30.63,WNW,302,0.0,-999.0,70,-99.99,,,0.02,0,weatherlink.com 1.10,2013-01-03 04:18:00,
2013-01-02 21:33:00,11.3,6.0,30.62,NW,314,0.0,-999.0,79,-99.99,,,0.02,0,weatherlink.com 1.10,2013-01-03 04:33:00,
2013-01-02 21:48:00,13.6,8.0,30.63,NW,314,0.0,-999.0,77,-99.99,,,0.02,0,weatherlink.com 1.10,2013-01-03 04:48:00,
2013-01-02 22:03:00,14.4,7.0,30.64,NW,317,0.0,-999.0,73,-99.99,,,0.02,0,weatherlink.com 1.10,2013-01-03 05:03:00,
2013-01-02 22:18:00,10.6,4.0,30.64,NNW,335,3.0,-999.0,74,-99.99,,,0.02,0,weatherlink.com 1.10,2013-01-03 05:18:00,
2013-01-02 22:34:00,7.1,1.0,30.64,NNE,12,3.0,-999.0,77,-99.99,,,0.02,0,weatherlink.com 1.10,2013-01-03 05:34:00,
2013-01-02 22:49:00,7.2,1.0,30.64,NNE,22,3.0,-999.0,77,-99.99,,,0.02,0,weatherlink.com 1.10,2013-01-03 05:49:00,
2013-01-02 23:04:00,7.7,1.0,30.63,North,360,3.0,-999.0,75,-99.99,,,0.02,0,weatherlink.com 1.10,2013-01-03 06:04:00,
2013-01-02 23:19:00,7.3,1.0,30.63,North,5,3.0,-999.0,75,-99.99,,,0.02,0,weatherlink.com 1.10,2013-01-03 06:19:00,
2013-01-02 23:34:00,7.9,1.0,30.64,NNW,348,3.0,-999.0,72,-99.99,,,0.02,0,weatherlink.com 1.10,2013-01-03 06:34:00,
2013-01-02 23:49:00,7.4,0.0,30.63,North,355,3.0,-999.0,72,-99.99,,,0.02,0,weatherlink.com 1.10,2013-01-03 06:49:00,